Accueil
METAR-TAF:

METAR-TAF

Aéroports :

Meiringen, Suisse

latitude: 46-44-25N, longitude: 8-06-36E, altitude: 577 m

Observation

Le bulletin a été fait il y a 20 minutes, à 18:50 UTC
Vent calme
Température 25°C
Humidité 61%
Pression 1020 hPa
Visibilité 10 km ou plus
Quelques nuages à une hauteur de 9100 ft

METAR: LSMM 201850Z AUTO 00000KT 9999NDV FEW091 25/17 Q1020 RMK

Heure: 21:10 (19:10 UTC)


TAF: absent

Observations et prévisions météorologiques de plus de 4000 aéroports (messages METAR et TAF).

Les stations disponibles sont représentées par des disques jaunes et rouges sur la carte.

Passer la souris dessus pour voir le nom de la station.

Cliquer dessus pour voir les observations et prévisions météorologiques.

Pour changer de carte: cliquez sur les boutons verts avec une croix noire pour zoomer, sur le bouton vert avec un tiret pour effectuer un zoom arrière, ou sur les flèches vertes pour les cartes adjacentes.


METAR-TAF: